createdAt,value
2023-03-02T00:02:09.291Z,102746.22
2023-03-02T00:04:53.904Z,102748.19
2023-03-02T00:07:32.978Z,102750.13
2023-03-02T00:10:04.380Z,102752.78
2023-03-02T00:12:37.233Z,102749.44
2023-03-02T00:15:04.055Z,102742.00
2023-03-02T00:17:30.625Z,102745.53
2023-03-02T00:20:11.492Z,102735.53
2023-03-02T00:22:39.932Z,102737.16
2023-03-02T00:25:09.660Z,102739.69
2023-03-02T00:27:38.516Z,102732.19
2023-03-02T00:30:05.855Z,102729.75
2023-03-02T00:32:32.460Z,102736.66
2023-03-02T00:35:00.156Z,102736.03
2023-03-02T00:37:26.720Z,102731.88
2023-03-02T00:39:56.380Z,102737.75
2023-03-02T00:42:23.441Z,102734.31
2023-03-02T00:44:53.710Z,102736.91
2023-03-02T00:47:22.286Z,102732.78
2023-03-02T00:49:49.536Z,102729.59
2023-03-02T00:52:16.813Z,102728.72
2023-03-02T00:54:45.536Z,102732.03
2023-03-02T00:57:14.397Z,102740.31
2023-03-02T00:59:41.151Z,102732.13
2023-03-02T01:02:07.779Z,102733.69
2023-03-02T01:04:37.434Z,102740.38
2023-03-02T01:07:11.144Z,102740.63
2023-03-02T01:09:40.869Z,102744.91
2023-03-02T01:12:11.169Z,102742.38
2023-03-02T01:14:43.643Z,102738.09
2023-03-02T01:17:11.807Z,102736.53
2023-03-02T01:19:41.253Z,102728.88
2023-03-02T01:22:08.468Z,102728.13
2023-03-02T01:24:37.433Z,102733.13
2023-03-02T01:27:06.491Z,102727.25
2023-03-02T01:29:32.987Z,102720.44
2023-03-02T01:32:02.576Z,102717.09
2023-03-02T01:34:34.451Z,102711.97
2023-03-02T01:37:00.956Z,102712.75
2023-03-02T01:39:30.308Z,102712.84
2023-03-02T01:41:59.124Z,102716.97
2023-03-02T01:44:59.803Z,102715.28
2023-03-02T01:47:33.690Z,102711.78
2023-03-02T01:50:06.286Z,102716.59
2023-03-02T01:52:38.569Z,102712.25
2023-03-02T01:55:08.787Z,102707.94
2023-03-02T01:57:43.602Z,102705.50
2023-03-02T02:00:22.457Z,102709.72
2023-03-02T02:02:54.876Z,102708.72
2023-03-02T02:05:28.182Z,102706.13
2023-03-02T02:07:54.688Z,102706.31
2023-03-02T02:10:27.237Z,102701.06
2023-03-02T02:12:53.728Z,102700.00
2023-03-02T02:15:22.550Z,102701.47
2023-03-02T02:17:50.012Z,102700.72
2023-03-02T02:20:35.736Z,102701.34
2023-03-02T02:23:07.753Z,102688.72
2023-03-02T02:25:56.472Z,102691.09
2023-03-02T02:28:33.195Z,102694.34
2023-03-02T02:31:09.067Z,102693.50
2023-03-02T02:33:39.849Z,102695.34
2023-03-02T02:36:15.088Z,102695.97
2023-03-02T02:38:46.480Z,102695.06
2023-03-02T02:41:20.071Z,102701.00
2023-03-02T02:43:46.646Z,102682.53
2023-03-02T02:46:15.502Z,102688.47
2023-03-02T02:48:47.634Z,102687.69
2023-03-02T02:51:23.606Z,102684.34
2023-03-02T02:53:58.586Z,102678.47
2023-03-02T02:56:32.450Z,102674.38
2023-03-02T02:59:22.717Z,102677.03
2023-03-02T03:01:56.532Z,102671.22
2023-03-02T03:04:26.984Z,102668.81
2023-03-02T03:07:07.321Z,102666.44
2023-03-02T03:09:33.842Z,102671.22
2023-03-02T03:12:14.122Z,102665.38
2023-03-02T03:14:41.458Z,102667.97
2023-03-02T03:17:12.347Z,102674.50
2023-03-02T03:19:42.187Z,102671.09
2023-03-02T03:22:13.308Z,102671.97
2023-03-02T03:24:41.390Z,102676.41
2023-03-02T03:27:15.306Z,102669.63
2023-03-02T03:29:51.315Z,102662.06
2023-03-02T03:32:19.086Z,102666.31
2023-03-02T03:34:48.345Z,102661.41
2023-03-02T03:37:17.842Z,102659.06
2023-03-02T03:39:45.368Z,102658.97
2023-03-02T03:42:12.041Z,102662.41
2023-03-02T03:44:40.662Z,102669.97
2023-03-02T03:47:07.196Z,102664.84
2023-03-02T03:49:38.261Z,102662.41
2023-03-02T03:52:07.705Z,102659.88
2023-03-02T03:54:39.917Z,102661.41
2023-03-02T03:57:11.226Z,102668.16
2023-03-02T03:59:38.014Z,102662.41
2023-03-02T04:02:06.956Z,102664.19
2023-03-02T04:04:35.143Z,102669.09
2023-03-02T04:07:06.622Z,102664.91
2023-03-02T04:09:37.725Z,102669.25
2023-03-02T04:12:10.020Z,102673.50
2023-03-02T04:14:39.661Z,102667.56
2023-03-02T04:17:07.103Z,102671.78
2023-03-02T04:19:35.546Z,102671.03
2023-03-02T04:22:04.091Z,102666.88
2023-03-02T04:24:30.933Z,102663.59
2023-03-02T04:26:58.053Z,102671.56
2023-03-02T04:29:27.088Z,102670.03
2023-03-02T04:31:53.965Z,102660.88
2023-03-02T04:34:25.593Z,102669.91
2023-03-02T04:36:52.869Z,102672.63
2023-03-02T04:39:22.437Z,102670.13
2023-03-02T04:41:49.387Z,102670.28
2023-03-02T04:44:16.971Z,102666.97
2023-03-02T04:46:44.783Z,102669.63
2023-03-02T04:49:15.609Z,102666.47
2023-03-02T04:51:44.922Z,102667.44
2023-03-02T04:54:21.770Z,102669.94
2023-03-02T04:56:48.793Z,102668.47
2023-03-02T04:59:26.296Z,102661.75
2023-03-02T05:02:01.208Z,102663.63
2023-03-02T05:04:28.970Z,102663.50
2023-03-02T05:06:56.019Z,102661.97
2023-03-02T05:09:31.148Z,102656.22
2023-03-02T05:12:00.543Z,102662.19
2023-03-02T05:14:29.775Z,102660.56
2023-03-02T05:16:56.613Z,102660.63
2023-03-02T05:19:23.200Z,102660.75
2023-03-02T05:21:50.414Z,102664.22
2023-03-02T05:24:19.484Z,102666.84
2023-03-02T05:26:48.639Z,102665.13
2023-03-02T05:29:17.414Z,102661.13
2023-03-02T05:31:50.094Z,102656.94
2023-03-02T05:34:18.022Z,102658.59
2023-03-02T05:36:46.938Z,102666.19
2023-03-02T05:39:16.167Z,102666.25
2023-03-02T05:41:42.726Z,102664.69
2023-03-02T05:44:12.582Z,102657.94
2023-03-02T05:46:39.558Z,102652.94
2023-03-02T05:49:06.472Z,102662.28
2023-03-02T05:51:32.981Z,102665.75
2023-03-02T05:54:02.090Z,102658.13
2023-03-02T05:56:28.622Z,102660.41
2023-03-02T05:58:55.144Z,102655.53
2023-03-02T06:01:23.887Z,102661.38
2023-03-02T06:03:50.424Z,102670.72
2023-03-02T06:06:19.998Z,102668.28
2023-03-02T06:08:48.912Z,102674.94
2023-03-02T06:11:15.454Z,102680.00
2023-03-02T06:13:46.621Z,102674.88
2023-03-02T06:16:13.165Z,102672.44
2023-03-02T06:18:41.460Z,102674.00
2023-03-02T06:21:10.295Z,102680.88
2023-03-02T06:23:39.400Z,102674.22
2023-03-02T06:26:10.514Z,102683.16
2023-03-02T06:28:51.358Z,102677.22
2023-03-02T06:31:25.212Z,102675.28
2023-03-02T06:33:55.226Z,102673.66
2023-03-02T06:36:22.765Z,102681.31
2023-03-02T06:38:51.589Z,102689.78
2023-03-02T06:41:18.148Z,102684.00
2023-03-02T06:43:45.084Z,102689.06
2023-03-02T06:46:13.823Z,102688.25
2023-03-02T06:48:43.026Z,102695.63
2023-03-02T06:51:12.663Z,102691.31
2023-03-02T06:53:39.171Z,102698.06
2023-03-02T06:56:06.270Z,102697.91
2023-03-02T06:58:32.954Z,102701.09
2023-03-02T07:01:02.003Z,102700.00
2023-03-02T07:03:28.858Z,102698.94
2023-03-02T07:05:55.524Z,102712.13
2023-03-02T07:08:22.256Z,102703.19
2023-03-02T07:10:53.704Z,102703.78
2023-03-02T07:13:20.186Z,102703.31
2023-03-02T07:15:46.623Z,102704.09
2023-03-02T07:18:15.662Z,102708.72
2023-03-02T07:20:45.652Z,102702.03
2023-03-02T07:23:12.208Z,102708.41
2023-03-02T07:25:38.718Z,102702.28
2023-03-02T07:28:09.953Z,102704.09
2023-03-02T07:30:36.453Z,102702.22
2023-03-02T07:33:05.218Z,102706.03
2023-03-02T07:35:38.612Z,102701.00
2023-03-02T07:38:07.427Z,102705.00
2023-03-02T07:40:38.488Z,102699.81
2023-03-02T07:43:09.934Z,102699.34
2023-03-02T07:45:40.782Z,102691.78
2023-03-02T07:48:08.378Z,102692.16
2023-03-02T07:50:35.053Z,102698.66
2023-03-02T07:53:01.513Z,102701.19
2023-03-02T07:55:28.159Z,102696.06
2023-03-02T07:57:54.935Z,102699.09
2023-03-02T08:00:22.069Z,102700.44
2023-03-02T08:02:51.184Z,102698.31
2023-03-02T08:05:17.844Z,102698.34
2023-03-02T08:07:46.536Z,102695.47
2023-03-02T08:10:17.792Z,102686.91
2023-03-02T08:12:46.833Z,102687.41
2023-03-02T08:15:13.305Z,102691.91
2023-03-02T08:17:41.122Z,102687.81
2023-03-02T08:20:12.792Z,102696.09
2023-03-02T08:22:42.226Z,102681.06
2023-03-02T08:25:09.186Z,102690.66
2023-03-02T08:27:40.227Z,102679.63
2023-03-02T08:30:12.514Z,102686.56
2023-03-02T08:32:39.725Z,102683.47
2023-03-02T08:35:08.496Z,102684.09
2023-03-02T08:37:38.218Z,102685.66
2023-03-02T08:40:05.917Z,102687.47
2023-03-02T08:42:34.940Z,102694.41
2023-03-02T08:45:03.752Z,102684.09
2023-03-02T08:47:32.663Z,102680.84
2023-03-02T08:49:59.585Z,102684.03
2023-03-02T08:52:32.613Z,102688.31
2023-03-02T08:55:03.898Z,102685.56
2023-03-02T08:57:30.775Z,102687.69
2023-03-02T08:59:57.260Z,102692.47
2023-03-02T09:02:26.081Z,102693.59
2023-03-02T09:04:57.486Z,102678.72
2023-03-02T09:07:24.434Z,102676.97
2023-03-02T09:09:53.216Z,102686.78
2023-03-02T09:12:20.780Z,102679.84
2023-03-02T09:14:49.510Z,102684.47
2023-03-02T09:17:19.708Z,102674.47
2023-03-02T09:19:46.306Z,102689.50
2023-03-02T09:22:13.171Z,102673.94
2023-03-02T09:24:42.543Z,102674.13
2023-03-02T09:27:09.028Z,102679.84
2023-03-02T09:29:36.654Z,102684.03
2023-03-02T09:32:03.386Z,102684.09
2023-03-02T09:34:30.357Z,102683.13
2023-03-02T09:36:59.413Z,102678.94
2023-03-02T09:39:28.565Z,102678.97
2023-03-02T09:42:09.986Z,102674.88
2023-03-02T09:44:56.669Z,102677.78
2023-03-02T09:47:46.941Z,102675.09
2023-03-02T09:50:27.671Z,102678.31
2023-03-02T09:53:10.618Z,102682.59
2023-03-02T09:55:39.902Z,102687.72
2023-03-02T09:58:17.309Z,102680.97
2023-03-02T10:00:47.617Z,102677.47
2023-03-02T10:03:20.639Z,102681.16
2023-03-02T10:05:56.265Z,102676.63
2023-03-02T10:08:32.948Z,102681.28
2023-03-02T10:11:12.773Z,102682.03
2023-03-02T10:13:52.448Z,102681.78
2023-03-02T10:16:46.941Z,102684.69
2023-03-02T10:19:25.217Z,102679.88
2023-03-02T10:21:57.332Z,102683.16
2023-03-02T10:24:44.729Z,102678.38
2023-03-02T10:27:31.028Z,102678.03
2023-03-02T10:30:03.584Z,102673.44
2023-03-02T10:32:43.852Z,102673.44
2023-03-02T10:35:20.921Z,102671.97
2023-03-02T10:37:48.864Z,102677.47
2023-03-02T10:40:45.796Z,102675.22
2023-03-02T10:43:24.969Z,102672.28
2023-03-02T10:46:05.460Z,102669.59
2023-03-02T10:48:34.335Z,102673.75
2023-03-02T10:51:00.872Z,102668.56
2023-03-02T10:53:29.039Z,102664.97
2023-03-02T10:55:56.719Z,102664.06
2023-03-02T10:58:32.131Z,102666.38
2023-03-02T11:01:00.455Z,102657.66
2023-03-02T11:03:28.928Z,102653.09
2023-03-02T11:05:58.344Z,102653.38
2023-03-02T11:08:27.912Z,102652.44
2023-03-02T11:11:06.486Z,102648.34
2023-03-02T11:13:38.526Z,102643.22
2023-03-02T11:16:24.257Z,102635.53
2023-03-02T11:19:15.677Z,102640.31
2023-03-02T11:21:59.096Z,102640.25
2023-03-02T11:24:52.487Z,102629.59
2023-03-02T11:27:25.037Z,102633.09
2023-03-02T11:30:00.025Z,102622.59
2023-03-02T11:32:46.091Z,102638.94
2023-03-02T11:35:22.795Z,102626.31
2023-03-02T11:37:57.282Z,102612.25
2023-03-02T11:40:29.840Z,102614.25
2023-03-02T11:42:58.816Z,102614.56
2023-03-02T11:45:31.128Z,102617.69
2023-03-02T11:48:20.345Z,102611.88
2023-03-02T11:50:58.849Z,102612.56
2023-03-02T11:53:51.440Z,102606.31
2023-03-02T11:56:20.761Z,102595.63
2023-03-02T11:58:55.081Z,102596.06
2023-03-02T12:01:25.365Z,102592.94
2023-03-02T12:03:55.013Z,102586.84
2023-03-02T12:06:27.309Z,102583.50
2023-03-02T12:09:08.269Z,102587.19
2023-03-02T12:11:40.816Z,102581.94
2023-03-02T12:14:41.788Z,102582.38
2023-03-02T12:17:26.807Z,102581.06
2023-03-02T12:20:08.383Z,102572.59
2023-03-02T12:22:38.298Z,102579.88
2023-03-02T12:25:27.878Z,102573.59
2023-03-02T12:27:57.478Z,102563.72
2023-03-02T12:30:28.328Z,102561.81
2023-03-02T12:33:11.147Z,102567.22
2023-03-02T12:35:43.391Z,102559.41
2023-03-02T12:38:32.449Z,102563.31
2023-03-02T12:41:24.194Z,102562.88
2023-03-02T12:43:56.616Z,102560.06
2023-03-02T12:46:35.093Z,102558.97
2023-03-02T12:49:21.905Z,102562.75
2023-03-02T12:51:56.836Z,102550.06
2023-03-02T12:54:27.990Z,102550.88
2023-03-02T12:57:22.106Z,102547.09
2023-03-02T12:59:53.584Z,102550.63
2023-03-02T13:02:23.462Z,102544.66
2023-03-02T13:05:00.125Z,102538.03
2023-03-02T13:07:40.155Z,102548.59
2023-03-02T13:10:22.119Z,102539.91
2023-03-02T13:12:55.213Z,102535.47
2023-03-02T13:15:21.746Z,102534.38
2023-03-02T13:18:01.058Z,102516.13
2023-03-02T13:20:29.925Z,102519.78
2023-03-02T13:23:01.297Z,102521.84
2023-03-02T13:25:31.401Z,102514.38
2023-03-02T13:28:10.827Z,102510.31
2023-03-02T13:30:47.675Z,102504.91
2023-03-02T13:33:25.785Z,102502.94
2023-03-02T13:35:55.962Z,102502.41
2023-03-02T13:38:29.241Z,102508.41
2023-03-02T13:40:59.101Z,102516.25
2023-03-02T13:43:36.536Z,102512.06
2023-03-02T13:46:27.064Z,102512.22
2023-03-02T13:49:10.136Z,102513.28
2023-03-02T13:51:48.941Z,102511.56
2023-03-02T13:54:15.250Z,102512.91
2023-03-02T13:56:46.105Z,102506.41
2023-03-02T13:59:20.077Z,102514.91
2023-03-02T14:01:51.759Z,102496.81
2023-03-02T14:04:28.288Z,102501.91
2023-03-02T14:07:01.004Z,102504.97
2023-03-02T14:09:27.533Z,102500.28
2023-03-02T14:11:55.932Z,102495.88
2023-03-02T14:14:28.749Z,102498.56
2023-03-02T14:16:57.820Z,102493.59
2023-03-02T14:19:29.308Z,102495.72
2023-03-02T14:21:55.815Z,102495.19
2023-03-02T14:24:24.927Z,102487.63
2023-03-02T14:26:51.476Z,102481.94
2023-03-02T14:29:34.660Z,102482.47
2023-03-02T14:32:09.054Z,102479.66
2023-03-02T14:34:37.281Z,102475.88
2023-03-02T14:37:08.724Z,102475.88
2023-03-02T14:39:43.705Z,102477.22
2023-03-02T14:42:13.632Z,102477.06
2023-03-02T14:44:45.796Z,102472.22
2023-03-02T14:47:13.160Z,102466.28
2023-03-02T14:49:42.356Z,102461.25
2023-03-02T14:52:17.296Z,102465.44
2023-03-02T14:54:51.689Z,102461.69
2023-03-02T14:57:25.286Z,102460.84
2023-03-02T14:59:56.171Z,102455.59
2023-03-02T15:02:26.826Z,102455.19
2023-03-02T15:04:57.506Z,102454.13
2023-03-02T15:07:27.678Z,102450.47
2023-03-02T15:09:56.237Z,102444.09
2023-03-02T15:12:22.720Z,102452.88
2023-03-02T15:14:49.339Z,102441.81
2023-03-02T15:17:16.045Z,102451.09
2023-03-02T15:19:42.616Z,102452.22
2023-03-02T15:22:11.044Z,102451.50
2023-03-02T15:24:37.471Z,102439.22
2023-03-02T15:27:06.545Z,102442.88
2023-03-02T15:29:35.641Z,102447.81
2023-03-02T15:32:02.450Z,102439.06
2023-03-02T15:34:33.540Z,102444.06
2023-03-02T15:37:02.564Z,102441.25
2023-03-02T15:39:30.509Z,102436.22
2023-03-02T15:41:56.965Z,102442.00
2023-03-02T15:44:27.308Z,102438.19
2023-03-02T15:47:01.499Z,102443.72
2023-03-02T15:49:29.397Z,102442.38
2023-03-02T15:52:00.778Z,102443.28
2023-03-02T15:54:28.410Z,102440.19
2023-03-02T15:56:59.724Z,102454.19
2023-03-02T15:59:28.976Z,102448.78
2023-03-02T16:02:02.353Z,102452.78
2023-03-02T16:04:33.567Z,102449.81
2023-03-02T16:07:03.184Z,102452.00
2023-03-02T16:09:30.933Z,102453.41
2023-03-02T16:11:57.718Z,102458.47
2023-03-02T16:14:24.305Z,102453.28
2023-03-02T16:16:50.964Z,102459.97
2023-03-02T16:19:20.235Z,102458.13
2023-03-02T16:21:50.560Z,102457.81
2023-03-02T16:24:19.454Z,102469.72
2023-03-02T16:26:46.150Z,102472.31
2023-03-02T16:29:13.845Z,102466.19
2023-03-02T16:31:43.776Z,102472.84
2023-03-02T16:34:12.852Z,102474.75
2023-03-02T16:36:41.286Z,102474.63
2023-03-02T16:39:09.245Z,102486.28
2023-03-02T16:41:35.814Z,102486.16
2023-03-02T16:44:03.731Z,102486.16
2023-03-02T16:46:34.483Z,102493.69
2023-03-02T16:49:00.927Z,102493.34
2023-03-02T16:51:27.945Z,102500.75
2023-03-02T16:53:54.644Z,102503.78
2023-03-02T16:56:23.421Z,102501.88
2023-03-02T16:58:49.986Z,102508.59
2023-03-02T17:01:20.136Z,102502.44
2023-03-02T17:03:47.729Z,102514.59
2023-03-02T17:06:17.032Z,102515.19
2023-03-02T17:08:48.845Z,102520.81
2023-03-02T17:11:15.494Z,102515.47
2023-03-02T17:13:44.547Z,102517.72
2023-03-02T17:16:13.938Z,102527.66
2023-03-02T17:18:46.670Z,102530.75
2023-03-02T17:21:16.107Z,102526.19
2023-03-02T17:23:48.323Z,102531.84
2023-03-02T17:26:17.826Z,102542.47
2023-03-02T17:28:44.720Z,102538.69
2023-03-02T17:31:14.470Z,102543.41
2023-03-02T17:33:40.992Z,102542.78
2023-03-02T17:36:15.930Z,102546.56
2023-03-02T17:38:44.564Z,102543.63
2023-03-02T17:41:11.877Z,102546.59
2023-03-02T17:43:41.877Z,102557.31
2023-03-02T17:46:13.670Z,102566.28
2023-03-02T17:48:40.840Z,102567.50
2023-03-02T17:51:07.443Z,102565.47
2023-03-02T17:53:37.669Z,102567.63
2023-03-02T17:56:07.397Z,102565.56
2023-03-02T17:58:44.220Z,102569.31
2023-03-02T18:01:13.206Z,102574.00
2023-03-02T18:03:42.534Z,102585.22
2023-03-02T18:06:11.633Z,102591.50
2023-03-02T18:08:40.893Z,102590.91
2023-03-02T18:11:07.632Z,102598.66
2023-03-02T18:13:34.204Z,102600.56
2023-03-02T18:16:00.796Z,102601.47
2023-03-02T18:18:27.393Z,102597.50
2023-03-02T18:20:57.133Z,102599.41
2023-03-02T18:23:23.714Z,102607.25
2023-03-02T18:25:52.462Z,102611.81
2023-03-02T18:28:21.173Z,102608.75
2023-03-02T18:30:50.190Z,102616.66
2023-03-02T18:33:16.652Z,102622.03
2023-03-02T18:35:45.528Z,102625.59
2023-03-02T18:38:12.303Z,102629.22
2023-03-02T18:40:42.816Z,102633.06
2023-03-02T18:43:09.537Z,102630.53
2023-03-02T18:45:38.253Z,102628.88
2023-03-02T18:48:05.056Z,102634.28
2023-03-02T18:50:32.932Z,102630.91
2023-03-02T18:52:59.523Z,102631.19
2023-03-02T18:55:28.443Z,102639.00
2023-03-02T18:57:57.170Z,102638.19
2023-03-02T19:00:28.934Z,102635.19
2023-03-02T19:02:57.178Z,102642.72
2023-03-02T19:05:27.033Z,102636.19
2023-03-02T19:07:54.788Z,102639.00
2023-03-02T19:10:23.802Z,102635.84
2023-03-02T19:12:50.469Z,102633.47
2023-03-02T19:15:19.557Z,102635.31
2023-03-02T19:17:46.142Z,102645.75
2023-03-02T19:20:21.072Z,102639.19
2023-03-02T19:22:47.897Z,102644.56
2023-03-02T19:25:19.392Z,102646.38
2023-03-02T19:27:45.892Z,102650.00
2023-03-02T19:30:23.077Z,102654.53
2023-03-02T19:32:54.548Z,102649.81
2023-03-02T19:35:26.378Z,102654.34
2023-03-02T19:37:52.963Z,102650.38
2023-03-02T19:40:28.299Z,102656.16
2023-03-02T19:42:56.216Z,102654.69
2023-03-02T19:45:31.242Z,102658.16
2023-03-02T19:48:02.114Z,102660.69
2023-03-02T19:50:29.737Z,102659.06
2023-03-02T19:52:59.840Z,102663.22
2023-03-02T19:55:27.007Z,102658.31
2023-03-02T19:57:59.808Z,102658.41
2023-03-02T20:00:33.036Z,102661.06
2023-03-02T20:03:00.401Z,102663.84
2023-03-02T20:05:27.660Z,102657.25
2023-03-02T20:07:55.262Z,102657.66
2023-03-02T20:10:32.829Z,102651.03
2023-03-02T20:13:03.510Z,102655.56
2023-03-02T20:15:38.020Z,102656.63
2023-03-02T20:18:13.285Z,102659.34
2023-03-02T20:20:40.406Z,102657.97
2023-03-02T20:23:07.945Z,102658.25
2023-03-02T20:25:35.103Z,102660.94
2023-03-02T20:28:07.206Z,102656.19
2023-03-02T20:30:39.076Z,102660.81
2023-03-02T20:33:07.968Z,102660.97
2023-03-02T20:35:40.884Z,102661.22
2023-03-02T20:38:15.047Z,102660.66
2023-03-02T20:40:44.181Z,102664.19
2023-03-02T20:43:10.787Z,102657.72
2023-03-02T20:45:38.143Z,102657.16
2023-03-02T20:48:07.017Z,102652.88
2023-03-02T20:50:36.424Z,102654.75
2023-03-02T20:53:05.777Z,102659.13
2023-03-02T20:55:32.423Z,102656.00
2023-03-02T20:58:01.953Z,102659.44
2023-03-02T21:00:32.613Z,102664.03
2023-03-02T21:03:03.876Z,102658.31
2023-03-02T21:05:33.249Z,102658.44
2023-03-02T21:08:02.767Z,102671.31
2023-03-02T21:10:33.411Z,102663.84
2023-03-02T21:13:02.480Z,102664.09
2023-03-02T21:15:34.506Z,102672.59
2023-03-02T21:18:05.809Z,102666.63
2023-03-02T21:20:35.752Z,102674.56
2023-03-02T21:23:11.119Z,102665.56
2023-03-02T21:25:37.645Z,102677.41
2023-03-02T21:28:04.235Z,102686.00
2023-03-02T21:30:35.286Z,102686.06
2023-03-02T21:33:02.294Z,102687.06
2023-03-02T21:35:29.976Z,102677.00
2023-03-02T21:38:04.706Z,102676.19
2023-03-02T21:40:40.547Z,102673.66
2023-03-02T21:43:07.650Z,102668.81
2023-03-02T21:45:37.506Z,102666.44
2023-03-02T21:48:05.097Z,102665.84
2023-03-02T21:50:37.165Z,102667.66
2023-03-02T21:53:06.949Z,102666.97
2023-03-02T21:55:34.346Z,102678.00
2023-03-02T21:58:01.119Z,102663.03
2023-03-02T22:00:32.556Z,102672.44
2023-03-02T22:03:03.254Z,102670.00
2023-03-02T22:05:31.176Z,102671.63
2023-03-02T22:08:03.629Z,102666.69
2023-03-02T22:10:42.612Z,102667.69
2023-03-02T22:13:23.989Z,102662.94
2023-03-02T22:16:31.109Z,102676.53
2023-03-02T22:18:59.738Z,102679.09
2023-03-02T22:21:37.767Z,102670.66
2023-03-02T22:24:13.199Z,102680.13
2023-03-02T22:27:09.657Z,102691.38
2023-03-02T22:29:48.280Z,102687.22
2023-03-02T22:32:35.254Z,102697.34
2023-03-02T22:35:14.538Z,102692.19
2023-03-02T22:37:43.684Z,102691.16
2023-03-02T22:40:29.446Z,102681.63
2023-03-02T22:43:24.801Z,102688.25
2023-03-02T22:45:53.031Z,102683.34
2023-03-02T22:48:22.943Z,102677.53
2023-03-02T22:50:50.142Z,102678.41
2023-03-02T22:53:26.355Z,102681.19
2023-03-02T22:56:31.890Z,102679.63
2023-03-02T22:59:22.641Z,102673.06
2023-03-02T23:01:55.444Z,102683.44
2023-03-02T23:04:38.474Z,102676.88
2023-03-02T23:07:22.010Z,102688.13
2023-03-02T23:09:49.167Z,102692.66
2023-03-02T23:12:21.963Z,102692.88
2023-03-02T23:14:53.918Z,102688.13
2023-03-02T23:17:47.418Z,102693.22
2023-03-02T23:20:19.278Z,102689.06
2023-03-02T23:22:49.990Z,102685.03
2023-03-02T23:25:16.672Z,102685.03
2023-03-02T23:27:43.191Z,102690.09
2023-03-02T23:30:10.352Z,102681.75
2023-03-02T23:32:36.866Z,102681.97
2023-03-02T23:35:05.939Z,102688.88
2023-03-02T23:37:33.202Z,102683.91
2023-03-02T23:39:59.678Z,102682.28
2023-03-02T23:42:26.175Z,102686.63
2023-03-02T23:44:55.653Z,102685.00
2023-03-02T23:47:24.991Z,102680.75
2023-03-02T23:49:51.679Z,102683.28
2023-03-02T23:52:18.148Z,102688.31
2023-03-02T23:54:49.410Z,102689.78
2023-03-02T23:57:16.139Z,102693.06
2023-03-02T23:59:42.785Z,102701.47
